createdAt,value
2017-12-31T00:00:59.629Z,99351.48
2017-12-31T00:03:27.073Z,99353.80
2017-12-31T00:05:54.494Z,99353.94
2017-12-31T00:08:21.910Z,99347.83
2017-12-31T00:10:49.325Z,99346.45
2017-12-31T00:13:16.753Z,99346.68
2017-12-31T00:15:44.165Z,99349.78
2017-12-31T00:18:11.608Z,99349.18
2017-12-31T00:20:39.024Z,99352.87
2017-12-31T00:23:06.444Z,99358.77
2017-12-31T00:25:33.872Z,99359.00
2017-12-31T00:28:01.285Z,99362.83
2017-12-31T00:30:28.720Z,99364.40
2017-12-31T00:32:56.133Z,99358.53
2017-12-31T00:35:23.568Z,99351.06
2017-12-31T00:37:50.992Z,99341.43
2017-12-31T00:40:18.413Z,99342.91
2017-12-31T00:42:45.821Z,99332.01
2017-12-31T00:45:13.246Z,99330.81
2017-12-31T00:47:40.712Z,99335.49
2017-12-31T00:50:08.138Z,99341.03
2017-12-31T00:52:35.545Z,99344.20
2017-12-31T00:55:02.961Z,99334.05
2017-12-31T00:57:30.378Z,99339.10
2017-12-31T00:59:57.832Z,99327.16
2017-12-31T01:02:25.245Z,99333.05
2017-12-31T01:04:52.664Z,99339.83
2017-12-31T01:07:20.389Z,99337.91
2017-12-31T01:09:47.804Z,99335.23
2017-12-31T01:12:15.252Z,99339.50
2017-12-31T01:14:42.664Z,99337.36
2017-12-31T01:17:10.073Z,99342.84
2017-12-31T01:19:37.487Z,99344.37
2017-12-31T01:22:04.896Z,99353.81
2017-12-31T01:24:32.320Z,99349.38
2017-12-31T01:26:59.788Z,99340.88
2017-12-31T01:29:27.158Z,99345.94
2017-12-31T01:31:54.564Z,99341.05
2017-12-31T01:34:21.984Z,99337.80
2017-12-31T01:36:49.396Z,99338.72
2017-12-31T01:39:16.815Z,99328.63
2017-12-31T01:41:44.228Z,99328.22
2017-12-31T01:44:11.634Z,99320.54
2017-12-31T01:46:39.057Z,99318.72
2017-12-31T01:49:06.464Z,99321.13
2017-12-31T01:51:33.876Z,99324.55
2017-12-31T01:54:01.285Z,99325.39
2017-12-31T01:56:28.708Z,99324.84
2017-12-31T01:58:56.133Z,99326.72
2017-12-31T02:01:23.600Z,99331.23
2017-12-31T02:03:51.026Z,99328.23
2017-12-31T02:06:18.437Z,99322.81
2017-12-31T02:08:45.885Z,99317.88
2017-12-31T02:11:13.341Z,99321.55
2017-12-31T02:13:40.780Z,99308.78
2017-12-31T02:16:08.193Z,99314.52
2017-12-31T02:18:35.608Z,99317.19
2017-12-31T02:21:03.048Z,99320.30
2017-12-31T02:23:30.493Z,99318.05
2017-12-31T02:25:57.914Z,99309.74
2017-12-31T02:28:25.328Z,99316.83
2017-12-31T02:30:52.755Z,99305.75
2017-12-31T02:33:20.201Z,99295.72
2017-12-31T02:35:47.620Z,99283.61
2017-12-31T02:38:15.033Z,99299.72
2017-12-31T02:40:42.492Z,99293.25
2017-12-31T02:43:09.911Z,99289.25
2017-12-31T02:45:37.330Z,99270.13
2017-12-31T02:48:04.745Z,99271.21
2017-12-31T02:50:32.173Z,99273.16
2017-12-31T02:52:59.849Z,99281.31
2017-12-31T02:55:27.293Z,99281.80
2017-12-31T02:57:54.754Z,99262.42
2017-12-31T03:00:22.173Z,99255.98
2017-12-31T03:02:49.624Z,99255.95
2017-12-31T03:05:17.040Z,99261.59
2017-12-31T03:07:44.453Z,99263.69
2017-12-31T03:10:11.933Z,99259.97
2017-12-31T03:12:39.336Z,99246.06
2017-12-31T03:15:06.768Z,99242.50
2017-12-31T03:17:34.180Z,99247.69
2017-12-31T03:20:01.598Z,99248.90
2017-12-31T03:22:29.018Z,99239.66
2017-12-31T03:24:56.459Z,99237.25
2017-12-31T03:27:23.894Z,99247.00
2017-12-31T03:29:51.306Z,99246.12
2017-12-31T03:32:18.732Z,99241.33
2017-12-31T03:34:46.174Z,99235.42
2017-12-31T03:37:13.600Z,99241.67
2017-12-31T03:39:41.028Z,99245.39
2017-12-31T03:42:08.457Z,99234.78
2017-12-31T03:44:35.900Z,99231.98
2017-12-31T03:47:03.340Z,99228.06
2017-12-31T03:49:30.766Z,99223.52
2017-12-31T03:51:58.179Z,99226.09
2017-12-31T03:54:25.670Z,99221.06
2017-12-31T03:56:53.110Z,99222.23
2017-12-31T03:59:20.528Z,99221.42
2017-12-31T04:01:47.973Z,99223.04
2017-12-31T04:04:15.417Z,99224.50
2017-12-31T04:06:42.824Z,99219.61
2017-12-31T04:09:10.260Z,99226.90
2017-12-31T04:11:37.672Z,99228.44
2017-12-31T04:14:05.102Z,99234.14
2017-12-31T04:16:32.521Z,99231.30
2017-12-31T04:18:59.932Z,99231.37
2017-12-31T04:21:27.359Z,99221.63
2017-12-31T04:23:54.785Z,99232.59
2017-12-31T04:26:22.200Z,99220.34
2017-12-31T04:28:49.616Z,99213.83
2017-12-31T04:31:17.062Z,99213.55
2017-12-31T04:33:44.497Z,99223.69
2017-12-31T04:36:11.918Z,99215.63
2017-12-31T04:38:39.347Z,99218.23
2017-12-31T04:41:06.769Z,99225.41
2017-12-31T04:43:34.193Z,99222.55
2017-12-31T04:46:01.624Z,99218.89
2017-12-31T04:48:29.041Z,99226.19
2017-12-31T04:50:56.449Z,99214.61
2017-12-31T04:53:23.892Z,99224.59
2017-12-31T04:55:51.292Z,99226.88
2017-12-31T04:58:18.704Z,99230.84
2017-12-31T05:00:46.120Z,99215.77
2017-12-31T05:03:13.536Z,99230.42
2017-12-31T05:05:40.962Z,99225.22
2017-12-31T05:08:08.377Z,99238.77
2017-12-31T05:10:35.793Z,99237.34
2017-12-31T05:13:03.204Z,99240.80
2017-12-31T05:15:30.657Z,99236.58
2017-12-31T05:17:58.062Z,99238.87
2017-12-31T05:20:25.501Z,99240.11
2017-12-31T05:22:52.926Z,99238.87
2017-12-31T05:25:20.329Z,99239.52
2017-12-31T05:27:47.737Z,99243.29
2017-12-31T05:30:15.202Z,99238.50
2017-12-31T05:32:42.600Z,99243.62
2017-12-31T05:35:10.016Z,99253.86
2017-12-31T05:37:37.433Z,99255.71
2017-12-31T05:40:04.856Z,99246.16
2017-12-31T05:42:32.284Z,99258.48
2017-12-31T05:44:59.688Z,99240.35
2017-12-31T05:47:27.110Z,99244.83
2017-12-31T05:49:54.517Z,99261.53
2017-12-31T05:52:21.943Z,99261.02
2017-12-31T05:54:49.349Z,99258.77
2017-12-31T05:57:16.773Z,99261.30
2017-12-31T05:59:44.203Z,99261.72
2017-12-31T06:02:11.664Z,99254.75
2017-12-31T06:04:39.110Z,99257.19
2017-12-31T06:07:06.520Z,99258.06
2017-12-31T06:09:33.954Z,99252.67
2017-12-31T06:12:01.361Z,99249.30
2017-12-31T06:14:28.808Z,99257.50
2017-12-31T06:16:56.225Z,99251.46
2017-12-31T06:19:23.666Z,99256.91
2017-12-31T06:21:51.088Z,99252.52
2017-12-31T06:24:18.521Z,99249.15
2017-12-31T06:26:45.981Z,99251.67
2017-12-31T06:29:13.409Z,99245.59
2017-12-31T06:31:40.818Z,99250.44
2017-12-31T06:34:08.270Z,99237.98
2017-12-31T06:36:35.678Z,99250.02
2017-12-31T06:39:03.081Z,99243.03
2017-12-31T06:41:30.529Z,99236.72
2017-12-31T06:43:57.932Z,99226.70
2017-12-31T06:46:25.373Z,99244.82
2017-12-31T06:48:52.785Z,99257.73
2017-12-31T06:51:20.210Z,99245.13
2017-12-31T06:53:47.634Z,99249.70
2017-12-31T06:56:15.056Z,99255.61
2017-12-31T06:58:42.512Z,99250.16
2017-12-31T07:01:10.041Z,99247.37
2017-12-31T07:03:37.480Z,99245.11
2017-12-31T07:06:04.908Z,99252.72
2017-12-31T07:08:32.322Z,99258.08
2017-12-31T07:11:00.151Z,99249.78
2017-12-31T07:13:27.587Z,99254.34
2017-12-31T07:15:54.996Z,99261.72
2017-12-31T07:18:22.475Z,99248.09
2017-12-31T07:20:49.886Z,99256.95
2017-12-31T07:23:17.308Z,99259.49
2017-12-31T07:25:44.729Z,99265.02
2017-12-31T07:28:12.156Z,99273.74
2017-12-31T07:30:39.592Z,99255.65
2017-12-31T07:33:07.021Z,99254.03
2017-12-31T07:35:34.449Z,99258.88
2017-12-31T07:38:01.884Z,99260.94
2017-12-31T07:40:29.303Z,99256.64
2017-12-31T07:42:56.754Z,99251.63
2017-12-31T07:45:24.170Z,99252.70
2017-12-31T07:47:51.589Z,99260.22
2017-12-31T07:50:19.020Z,99256.03
2017-12-31T07:52:46.468Z,99249.16
2017-12-31T07:55:13.973Z,99252.77
2017-12-31T07:57:41.397Z,99258.05
2017-12-31T08:00:08.813Z,99252.35
2017-12-31T08:02:36.222Z,99252.63
2017-12-31T08:05:03.625Z,99253.21
2017-12-31T08:07:31.060Z,99264.37
2017-12-31T08:09:58.472Z,99263.89
2017-12-31T08:12:25.896Z,99272.27
2017-12-31T08:14:53.304Z,99255.30
2017-12-31T08:17:20.713Z,99267.98
2017-12-31T08:19:48.124Z,99251.77
2017-12-31T08:22:15.537Z,99252.31
2017-12-31T08:24:42.944Z,99250.64
2017-12-31T08:27:10.357Z,99254.79
2017-12-31T08:29:37.768Z,99243.73
2017-12-31T08:32:05.227Z,99243.94
2017-12-31T08:34:32.665Z,99247.16
2017-12-31T08:37:00.085Z,99245.89
2017-12-31T08:39:27.502Z,99243.77
2017-12-31T08:41:54.908Z,99250.11
2017-12-31T08:44:22.333Z,99254.23
2017-12-31T08:46:49.740Z,99245.78
2017-12-31T08:49:17.145Z,99254.37
2017-12-31T08:51:44.553Z,99255.77
2017-12-31T08:54:11.961Z,99251.86
2017-12-31T08:56:39.394Z,99248.94
2017-12-31T08:59:06.826Z,99246.16
2017-12-31T09:01:34.233Z,99243.83
2017-12-31T09:04:01.669Z,99244.64
2017-12-31T09:06:29.073Z,99246.05
2017-12-31T09:08:56.498Z,99237.98
2017-12-31T09:11:23.905Z,99249.31
2017-12-31T09:13:51.329Z,99250.03
2017-12-31T09:16:18.746Z,99237.16
2017-12-31T09:18:46.160Z,99245.91
2017-12-31T09:21:13.601Z,99245.50
2017-12-31T09:23:42.557Z,99246.56
2017-12-31T09:26:10.037Z,99240.38
2017-12-31T09:28:37.494Z,99252.61
2017-12-31T09:31:08.378Z,99241.43
2017-12-31T09:33:36.028Z,99251.44
2017-12-31T09:36:04.032Z,99248.62
2017-12-31T09:38:32.098Z,99255.94
2017-12-31T09:41:00.293Z,99257.52
2017-12-31T09:43:27.721Z,99255.39
2017-12-31T09:45:55.193Z,99254.39
2017-12-31T09:48:22.631Z,99254.63
2017-12-31T09:50:50.125Z,99247.80
2017-12-31T09:53:17.567Z,99256.48
2017-12-31T09:55:44.984Z,99261.30
2017-12-31T09:58:12.417Z,99258.75
2017-12-31T10:00:39.882Z,99255.77
2017-12-31T10:03:07.296Z,99243.88
2017-12-31T10:05:34.720Z,99249.98
2017-12-31T10:08:02.155Z,99252.39
2017-12-31T10:10:35.176Z,99253.05
2017-12-31T10:13:02.589Z,99255.83
2017-12-31T10:15:30.005Z,99250.39
2017-12-31T10:17:57.454Z,99251.59
2017-12-31T10:20:24.877Z,99240.91
2017-12-31T10:22:52.340Z,99238.75
2017-12-31T10:25:19.833Z,99238.88
2017-12-31T10:27:47.252Z,99232.73
2017-12-31T10:30:14.718Z,99234.13
2017-12-31T10:32:42.137Z,99236.70
2017-12-31T10:35:10.425Z,99229.67
2017-12-31T10:37:37.866Z,99220.04
2017-12-31T10:40:05.286Z,99215.72
2017-12-31T10:42:32.713Z,99206.20
2017-12-31T10:45:00.153Z,99207.66
2017-12-31T10:47:27.573Z,99189.56
2017-12-31T10:49:54.978Z,99185.67
2017-12-31T10:52:22.406Z,99179.94
2017-12-31T10:54:49.828Z,99180.38
2017-12-31T10:57:18.196Z,99177.15
2017-12-31T10:59:45.632Z,99185.48
2017-12-31T11:02:13.057Z,99187.13
2017-12-31T11:04:40.473Z,99198.22
2017-12-31T11:07:07.918Z,99188.30
2017-12-31T11:09:35.345Z,99191.69
2017-12-31T11:12:02.761Z,99196.09
2017-12-31T11:14:30.184Z,99191.52
2017-12-31T11:16:57.598Z,99199.45
2017-12-31T11:19:25.013Z,99192.53
2017-12-31T11:21:52.429Z,99187.17
2017-12-31T11:24:26.409Z,99186.23
2017-12-31T11:26:53.853Z,99180.55
2017-12-31T11:29:21.265Z,99176.27
2017-12-31T11:31:48.685Z,99179.09
2017-12-31T11:34:16.105Z,99162.91
2017-12-31T11:36:57.441Z,99170.05
2017-12-31T11:39:24.865Z,99156.83
2017-12-31T11:41:53.069Z,99153.63
2017-12-31T11:44:20.848Z,99147.75
2017-12-31T11:46:48.941Z,99137.83
2017-12-31T11:49:21.029Z,99132.41
2017-12-31T11:51:48.518Z,99128.16
2017-12-31T11:54:16.396Z,99123.72
2017-12-31T11:56:43.805Z,99125.37
2017-12-31T11:59:11.212Z,99117.73
2017-12-31T12:01:38.635Z,99108.74
2017-12-31T12:04:06.037Z,99110.08
2017-12-31T12:06:33.453Z,99098.39
2017-12-31T12:09:00.873Z,99101.34
2017-12-31T12:11:28.269Z,99098.92
2017-12-31T12:13:55.692Z,99090.48
2017-12-31T12:16:23.096Z,99104.46
2017-12-31T12:18:50.535Z,99090.20
2017-12-31T12:21:17.929Z,99078.80
2017-12-31T12:23:45.332Z,99082.70
2017-12-31T12:26:12.737Z,99073.83
2017-12-31T12:28:40.149Z,99067.33
2017-12-31T12:31:07.556Z,99062.09
2017-12-31T12:33:34.964Z,99053.92
2017-12-31T12:36:02.368Z,99061.94
2017-12-31T12:38:30.229Z,99061.01
2017-12-31T12:40:57.637Z,99067.45
2017-12-31T12:43:25.041Z,99061.94
2017-12-31T12:45:52.449Z,99046.39
2017-12-31T12:48:19.852Z,99052.95
2017-12-31T12:50:47.256Z,99036.72
2017-12-31T12:53:14.708Z,99033.09
2017-12-31T12:55:42.117Z,99030.28
2017-12-31T12:58:09.514Z,99030.71
2017-12-31T13:00:36.942Z,99028.27
2017-12-31T13:03:04.347Z,99018.22
2017-12-31T13:05:31.759Z,99019.98
2017-12-31T13:07:59.153Z,99007.63
2017-12-31T13:10:26.569Z,99014.73
2017-12-31T13:12:53.979Z,99000.92
2017-12-31T13:15:21.381Z,98991.93
2017-12-31T13:17:48.798Z,98988.45
2017-12-31T13:20:16.215Z,98980.28
2017-12-31T13:22:43.626Z,98969.30
2017-12-31T13:25:11.037Z,98964.47
2017-12-31T13:27:38.441Z,98967.42
2017-12-31T13:30:05.849Z,98961.38
2017-12-31T13:32:33.258Z,98966.84
2017-12-31T13:35:00.665Z,98957.47
2017-12-31T13:37:28.069Z,98963.12
2017-12-31T13:39:55.485Z,98965.52
2017-12-31T13:42:22.884Z,98961.23
2017-12-31T13:44:50.285Z,98952.50
2017-12-31T13:47:17.704Z,98944.59
2017-12-31T13:49:45.104Z,98956.25
2017-12-31T13:52:12.517Z,98946.59
2017-12-31T13:54:39.985Z,98945.24
2017-12-31T13:57:07.376Z,98944.47
2017-12-31T13:59:34.793Z,98946.20
2017-12-31T14:02:02.196Z,98941.22
2017-12-31T14:04:29.601Z,98931.72
2017-12-31T14:06:57.032Z,98938.30
2017-12-31T14:09:24.441Z,98927.97
2017-12-31T14:11:51.877Z,98936.02
2017-12-31T14:14:19.283Z,98935.88
2017-12-31T14:16:46.692Z,98930.12
2017-12-31T14:19:14.100Z,98923.80
2017-12-31T14:21:41.508Z,98928.91
2017-12-31T14:24:08.909Z,98921.11
2017-12-31T14:26:36.338Z,98912.00
2017-12-31T14:29:03.733Z,98913.33
2017-12-31T14:31:31.177Z,98908.66
2017-12-31T14:33:58.597Z,98908.92
2017-12-31T14:36:25.997Z,98907.29
2017-12-31T14:38:54.649Z,98901.54
2017-12-31T14:41:22.062Z,98903.14
2017-12-31T14:43:49.473Z,98893.77
2017-12-31T14:46:16.877Z,98897.91
2017-12-31T14:48:45.152Z,98886.94
2017-12-31T14:51:14.274Z,98887.86
2017-12-31T14:53:41.673Z,98877.41
2017-12-31T14:56:09.093Z,98880.09
2017-12-31T14:58:36.521Z,98874.58
2017-12-31T15:01:03.929Z,98876.34
2017-12-31T15:03:31.357Z,98872.84
2017-12-31T15:05:58.760Z,98870.03
2017-12-31T15:08:26.171Z,98867.22
2017-12-31T15:10:53.598Z,98864.79
2017-12-31T15:13:21.007Z,98868.28
2017-12-31T15:15:52.422Z,98868.69
2017-12-31T15:18:19.829Z,98869.75
2017-12-31T15:20:47.256Z,98867.48
2017-12-31T15:23:14.676Z,98868.69
2017-12-31T15:25:42.081Z,98872.56
2017-12-31T15:28:09.493Z,98861.59
2017-12-31T15:30:36.959Z,98877.82
2017-12-31T15:33:04.360Z,98862.38
2017-12-31T15:35:31.773Z,98863.20
2017-12-31T15:37:59.198Z,98864.66
2017-12-31T15:40:26.645Z,98860.52
2017-12-31T15:42:54.049Z,98858.75
2017-12-31T15:45:21.454Z,98849.37
2017-12-31T15:47:48.861Z,98845.23
2017-12-31T15:50:16.270Z,98841.72
2017-12-31T15:52:43.688Z,98843.34
2017-12-31T15:55:16.222Z,98834.37
2017-12-31T15:57:44.502Z,98840.78
2017-12-31T16:00:11.909Z,98840.66
2017-12-31T16:02:39.305Z,98840.92
2017-12-31T16:05:06.726Z,98813.72
2017-12-31T16:07:34.129Z,98821.61
2017-12-31T16:10:01.538Z,98815.47
2017-12-31T16:12:28.965Z,98812.23
2017-12-31T16:14:56.380Z,98813.98
2017-12-31T16:17:23.788Z,98815.86
2017-12-31T16:19:51.192Z,98805.00
2017-12-31T16:22:18.641Z,98799.10
2017-12-31T16:24:46.060Z,98800.98
2017-12-31T16:27:13.565Z,98794.53
2017-12-31T16:29:40.993Z,98787.98
2017-12-31T16:32:08.492Z,98789.03
2017-12-31T16:34:35.876Z,98782.47
2017-12-31T16:37:03.281Z,98786.64
2017-12-31T16:39:31.787Z,98783.26
2017-12-31T16:41:59.184Z,98778.83
2017-12-31T16:44:26.582Z,98776.30
2017-12-31T16:46:54.044Z,98776.30
2017-12-31T16:49:21.409Z,98767.59
2017-12-31T16:51:53.277Z,98765.70
2017-12-31T16:54:20.689Z,98773.35
2017-12-31T16:56:48.089Z,98759.01
2017-12-31T16:59:15.498Z,98760.64
2017-12-31T17:01:42.925Z,98744.80
2017-12-31T17:04:10.329Z,98747.61
2017-12-31T17:06:37.809Z,98742.27
2017-12-31T17:09:05.218Z,98731.66
2017-12-31T17:11:32.620Z,98737.55
2017-12-31T17:14:00.026Z,98728.02
2017-12-31T17:16:27.462Z,98728.02
2017-12-31T17:18:54.869Z,98720.80
2017-12-31T17:21:22.271Z,98719.45
2017-12-31T17:23:49.673Z,98724.27
2017-12-31T17:26:17.089Z,98717.70
2017-12-31T17:28:44.521Z,98715.05
2017-12-31T17:31:11.994Z,98716.80
2017-12-31T17:33:46.281Z,98709.29
2017-12-31T17:36:24.149Z,98713.48
2017-12-31T17:38:51.564Z,98704.23
2017-12-31T17:41:18.973Z,98707.08
2017-12-31T17:43:49.729Z,98702.81
2017-12-31T17:46:17.188Z,98698.79
2017-12-31T17:48:44.641Z,98695.70
2017-12-31T17:51:12.093Z,98685.81
2017-12-31T17:53:39.509Z,98680.04
2017-12-31T17:56:06.908Z,98669.88
2017-12-31T17:58:40.073Z,98678.84
2017-12-31T18:01:17.960Z,98674.00
2017-12-31T18:03:45.381Z,98669.18
2017-12-31T18:06:12.793Z,98669.18
2017-12-31T18:08:40.197Z,98669.45
2017-12-31T18:11:07.614Z,98663.14
2017-12-31T18:13:35.033Z,98671.30
2017-12-31T18:16:02.677Z,98659.64
2017-12-31T18:18:30.081Z,98666.73
2017-12-31T18:20:57.546Z,98663.50
2017-12-31T18:23:24.923Z,98657.06
2017-12-31T18:25:52.328Z,98664.30
2017-12-31T18:28:19.758Z,98651.91
2017-12-31T18:30:47.163Z,98644.71
2017-12-31T18:33:14.589Z,98645.77
2017-12-31T18:35:42.003Z,98643.23
2017-12-31T18:38:09.405Z,98646.55
2017-12-31T18:40:36.830Z,98637.02
2017-12-31T18:43:04.232Z,98647.08
2017-12-31T18:45:31.647Z,98644.39
2017-12-31T18:47:59.080Z,98639.85
2017-12-31T18:50:26.517Z,98642.35
2017-12-31T18:52:53.940Z,98634.08
2017-12-31T18:55:21.348Z,98634.75
2017-12-31T18:57:48.774Z,98635.83
2017-12-31T19:00:16.200Z,98632.03
2017-12-31T19:02:43.617Z,98634.45
2017-12-31T19:05:11.029Z,98627.75
2017-12-31T19:07:38.450Z,98630.84
2017-12-31T19:10:05.868Z,98626.00
2017-12-31T19:12:33.281Z,98620.38
2017-12-31T19:15:00.706Z,98622.09
2017-12-31T19:17:28.113Z,98618.52
2017-12-31T19:19:55.534Z,98621.19
2017-12-31T19:22:22.941Z,98608.02
2017-12-31T19:24:50.371Z,98621.05
2017-12-31T19:27:17.788Z,98613.70
2017-12-31T19:29:45.193Z,98613.67
2017-12-31T19:32:12.628Z,98612.03
2017-12-31T19:34:40.046Z,98613.00
2017-12-31T19:37:07.477Z,98623.32
2017-12-31T19:39:34.884Z,98616.36
2017-12-31T19:42:02.300Z,98613.00
2017-12-31T19:44:29.705Z,98607.78
2017-12-31T19:46:57.109Z,98609.50
2017-12-31T19:49:24.526Z,98616.73
2017-12-31T19:51:51.934Z,98605.06
2017-12-31T19:54:20.153Z,98604.40
2017-12-31T19:56:47.565Z,98608.31
2017-12-31T19:59:15.073Z,98605.63
2017-12-31T20:01:43.450Z,98610.84
2017-12-31T20:04:10.874Z,98600.90
2017-12-31T20:06:38.289Z,98612.33
2017-12-31T20:09:05.701Z,98610.73
2017-12-31T20:11:33.137Z,98610.98
2017-12-31T20:14:00.552Z,98608.42
2017-12-31T20:16:27.965Z,98615.53
2017-12-31T20:18:55.361Z,98615.98
2017-12-31T20:21:22.762Z,98611.17
2017-12-31T20:23:50.169Z,98629.53
2017-12-31T20:26:17.600Z,98625.39
2017-12-31T20:28:45.022Z,98696.03
2017-12-31T20:31:12.444Z,98711.75
2017-12-31T20:33:41.001Z,98714.85
2017-12-31T20:36:08.405Z,98739.00
2017-12-31T20:38:35.831Z,98726.91
2017-12-31T20:41:03.270Z,98726.38
2017-12-31T20:43:30.673Z,98731.47
2017-12-31T20:45:58.092Z,98723.09
2017-12-31T20:48:25.510Z,98727.95
2017-12-31T20:50:52.924Z,98734.76
2017-12-31T20:53:20.344Z,98732.64
2017-12-31T20:55:47.784Z,98734.96
2017-12-31T20:58:15.235Z,98743.44
2017-12-31T21:00:42.632Z,98741.42
2017-12-31T21:03:10.061Z,98741.70
2017-12-31T21:05:37.469Z,98749.71
2017-12-31T21:08:10.572Z,98744.56
2017-12-31T21:10:39.009Z,98746.47
2017-12-31T21:13:06.432Z,98746.78
2017-12-31T21:15:33.857Z,98739.25
2017-12-31T21:18:01.284Z,98741.81
2017-12-31T21:20:28.825Z,98736.45
2017-12-31T21:22:56.228Z,98737.52
2017-12-31T21:25:23.641Z,98731.88
2017-12-31T21:27:51.065Z,98735.50
2017-12-31T21:30:18.477Z,98732.89
2017-12-31T21:32:45.885Z,98747.11
2017-12-31T21:35:13.293Z,98748.41
2017-12-31T21:37:40.710Z,98741.20
2017-12-31T21:40:08.114Z,98750.52
2017-12-31T21:42:35.524Z,98754.30
2017-12-31T21:45:02.936Z,98747.08
2017-12-31T21:47:30.360Z,98745.90
2017-12-31T21:49:57.769Z,98747.14
2017-12-31T21:52:25.177Z,98757.98
2017-12-31T21:54:52.597Z,98745.95
2017-12-31T21:57:20.010Z,98749.07
2017-12-31T21:59:47.417Z,98751.42
2017-12-31T22:02:14.829Z,98753.40
2017-12-31T22:04:42.258Z,98754.09
2017-12-31T22:07:09.665Z,98757.16
2017-12-31T22:09:37.221Z,98754.54
2017-12-31T22:12:04.625Z,98745.22
2017-12-31T22:14:32.032Z,98752.07
2017-12-31T22:16:59.440Z,98742.23
2017-12-31T22:19:26.869Z,98750.87
2017-12-31T22:21:54.284Z,98760.42
2017-12-31T22:24:21.697Z,98766.55
2017-12-31T22:26:49.105Z,98774.03
2017-12-31T22:29:16.530Z,98768.47
2017-12-31T22:31:43.944Z,98769.48
2017-12-31T22:34:11.353Z,98768.52
2017-12-31T22:36:38.768Z,98774.77
2017-12-31T22:39:06.196Z,98767.01
2017-12-31T22:41:33.604Z,98772.25
2017-12-31T22:44:01.020Z,98768.47
2017-12-31T22:46:28.432Z,98770.86
2017-12-31T22:48:55.858Z,98763.51
2017-12-31T22:51:23.269Z,98773.39
2017-12-31T22:53:50.673Z,98783.97
2017-12-31T22:56:18.096Z,98781.10
2017-12-31T22:58:45.509Z,98781.89
2017-12-31T23:01:12.920Z,98795.55
2017-12-31T23:03:40.345Z,98796.70
2017-12-31T23:06:07.753Z,98778.27
2017-12-31T23:08:35.177Z,98792.05
2017-12-31T23:11:02.594Z,98789.02
2017-12-31T23:13:30.020Z,98813.66
2017-12-31T23:15:57.440Z,98818.41
2017-12-31T23:18:24.849Z,98818.44
2017-12-31T23:20:52.270Z,98815.68
2017-12-31T23:23:19.676Z,98839.77
2017-12-31T23:25:47.089Z,98837.59
2017-12-31T23:28:14.501Z,98835.80
2017-12-31T23:30:41.923Z,98846.27
2017-12-31T23:33:09.338Z,98840.63
2017-12-31T23:35:36.761Z,98855.39
2017-12-31T23:38:04.164Z,98869.56
2017-12-31T23:40:31.565Z,98873.20
2017-12-31T23:42:58.977Z,98896.52
2017-12-31T23:45:26.381Z,98906.97
2017-12-31T23:47:53.796Z,98910.53
2017-12-31T23:50:21.206Z,98923.44
2017-12-31T23:52:48.608Z,98959.50
2017-12-31T23:55:16.032Z,98974.42
2017-12-31T23:57:43.428Z,98949.52
